sensor_id;sensor_type;location;lat;lon;timestamp;P1;durP1;ratioP1;P2;durP2;ratioP2
8225;SDS011;4154;48.810;9.012;2024-01-15T00:01:57;9.97;;;6.60;;
8225;SDS011;4154;48.810;9.012;2024-01-15T00:04:23;9.63;;;6.33;;
8225;SDS011;4154;48.810;9.012;2024-01-15T00:06:49;9.50;;;6.13;;
8225;SDS011;4154;48.810;9.012;2024-01-15T00:09:15;9.93;;;6.50;;
8225;SDS011;4154;48.810;9.012;2024-01-15T00:11:41;10.73;;;6.90;;
8225;SDS011;4154;48.810;9.012;2024-01-15T00:14:08;9.53;;;6.40;;
8225;SDS011;4154;48.810;9.012;2024-01-15T00:16:34;10.10;;;6.83;;
8225;SDS011;4154;48.810;9.012;2024-01-15T00:18:59;9.10;;;6.33;;
8225;SDS011;4154;48.810;9.012;2024-01-15T00:21:25;9.47;;;6.43;;
8225;SDS011;4154;48.810;9.012;2024-01-15T00:23:52;9.50;;;6.03;;
8225;SDS011;4154;48.810;9.012;2024-01-15T00:26:18;9.10;;;6.67;;
8225;SDS011;4154;48.810;9.012;2024-01-15T00:28:44;9.77;;;6.73;;
8225;SDS011;4154;48.810;9.012;2024-01-15T00:31:10;9.23;;;6.00;;
8225;SDS011;4154;48.810;9.012;2024-01-15T00:33:35;9.10;;;6.10;;
8225;SDS011;4154;48.810;9.012;2024-01-15T00:36:01;9.63;;;6.00;;
8225;SDS011;4154;48.810;9.012;2024-01-15T00:38:28;8.60;;;5.60;;
8225;SDS011;4154;48.810;9.012;2024-01-15T00:40:54;10.13;;;6.57;;
8225;SDS011;4154;48.810;9.012;2024-01-15T00:43:19;8.60;;;5.80;;
8225;SDS011;4154;48.810;9.012;2024-01-15T00:45:46;9.07;;;5.97;;
8225;SDS011;4154;48.810;9.012;2024-01-15T00:48:11;9.30;;;6.60;;
8225;SDS011;4154;48.810;9.012;2024-01-15T00:50:37;8.50;;;5.70;;
8225;SDS011;4154;48.810;9.012;2024-01-15T00:53:03;8.33;;;5.90;;
8225;SDS011;4154;48.810;9.012;2024-01-15T00:55:29;9.63;;;5.87;;
8225;SDS011;4154;48.810;9.012;2024-01-15T00:57:54;9.97;;;6.40;;
8225;SDS011;4154;48.810;9.012;2024-01-15T01:00:20;8.77;;;6.17;;
8225;SDS011;4154;48.810;9.012;2024-01-15T01:02:46;9.03;;;6.10;;
8225;SDS011;4154;48.810;9.012;2024-01-15T01:05:12;9.17;;;6.00;;
8225;SDS011;4154;48.810;9.012;2024-01-15T01:07:37;8.63;;;5.90;;
8225;SDS011;4154;48.810;9.012;2024-01-15T01:10:03;9.20;;;5.57;;
8225;SDS011;4154;48.810;9.012;2024-01-15T01:12:29;10.33;;;6.47;;
8225;SDS011;4154;48.810;9.012;2024-01-15T01:14:55;9.80;;;6.10;;
8225;SDS011;4154;48.810;9.012;2024-01-15T01:17:21;10.40;;;6.20;;
8225;SDS011;4154;48.810;9.012;2024-01-15T01:19:47;8.47;;;5.93;;
8225;SDS011;4154;48.810;9.012;2024-01-15T01:22:14;8.93;;;5.70;;
8225;SDS011;4154;48.810;9.012;2024-01-15T01:24:40;10.80;;;6.77;;
8225;SDS011;4154;48.810;9.012;2024-01-15T01:27:05;9.57;;;6.70;;
8225;SDS011;4154;48.810;9.012;2024-01-15T01:29:32;9.10;;;5.53;;
8225;SDS011;4154;48.810;9.012;2024-01-15T01:31:57;8.53;;;6.20;;
8225;SDS011;4154;48.810;9.012;2024-01-15T01:34:23;9.40;;;6.10;;
8225;SDS011;4154;48.810;9.012;2024-01-15T01:36:49;9.73;;;5.73;;
8225;SDS011;4154;48.810;9.012;2024-01-15T01:39:15;8.53;;;5.80;;
8225;SDS011;4154;48.810;9.012;2024-01-15T01:41:41;8.67;;;5.80;;
8225;SDS011;4154;48.810;9.012;2024-01-15T01:44:06;8.37;;;5.83;;
8225;SDS011;4154;48.810;9.012;2024-01-15T01:46:32;10.30;;;5.67;;
8225;SDS011;4154;48.810;9.012;2024-01-15T01:49:05;8.33;;;5.87;;
8225;SDS011;4154;48.810;9.012;2024-01-15T01:51:34;8.60;;;5.87;;
8225;SDS011;4154;48.810;9.012;2024-01-15T01:54:02;8.83;;;5.63;;
8225;SDS011;4154;48.810;9.012;2024-01-15T01:56:29;8.93;;;5.87;;
8225;SDS011;4154;48.810;9.012;2024-01-15T01:58:55;10.30;;;5.73;;
8225;SDS011;4154;48.810;9.012;2024-01-15T02:01:21;8.70;;;5.47;;
8225;SDS011;4154;48.810;9.012;2024-01-15T02:03:47;8.70;;;5.40;;
8225;SDS011;4154;48.810;9.012;2024-01-15T02:06:13;8.07;;;5.63;;
8225;SDS011;4154;48.810;9.012;2024-01-15T02:08:39;6.73;;;5.07;;
8225;SDS011;4154;48.810;9.012;2024-01-15T02:11:08;8.43;;;5.60;;
8225;SDS011;4154;48.810;9.012;2024-01-15T02:13:34;9.17;;;5.87;;
8225;SDS011;4154;48.810;9.012;2024-01-15T02:16:00;10.27;;;5.63;;
8225;SDS011;4154;48.810;9.012;2024-01-15T02:18:25;9.27;;;5.80;;
8225;SDS011;4154;48.810;9.012;2024-01-15T02:20:51;8.83;;;5.83;;
8225;SDS011;4154;48.810;9.012;2024-01-15T02:23:16;8.40;;;5.50;;
8225;SDS011;4154;48.810;9.012;2024-01-15T02:25:43;7.67;;;5.50;;
8225;SDS011;4154;48.810;9.012;2024-01-15T02:28:10;7.57;;;5.50;;
8225;SDS011;4154;48.810;9.012;2024-01-15T02:30:39;8.50;;;5.53;;
8225;SDS011;4154;48.810;9.012;2024-01-15T02:33:07;7.70;;;5.50;;
8225;SDS011;4154;48.810;9.012;2024-01-15T02:35:33;7.87;;;5.33;;
8225;SDS011;4154;48.810;9.012;2024-01-15T02:38:01;8.63;;;5.70;;
8225;SDS011;4154;48.810;9.012;2024-01-15T02:40:28;7.20;;;5.10;;
8225;SDS011;4154;48.810;9.012;2024-01-15T02:42:54;8.07;;;5.33;;
8225;SDS011;4154;48.810;9.012;2024-01-15T02:45:20;9.80;;;5.67;;
8225;SDS011;4154;48.810;9.012;2024-01-15T02:47:47;7.90;;;5.33;;
8225;SDS011;4154;48.810;9.012;2024-01-15T02:50:12;7.23;;;5.00;;
8225;SDS011;4154;48.810;9.012;2024-01-15T02:52:38;7.23;;;5.23;;
8225;SDS011;4154;48.810;9.012;2024-01-15T02:55:04;8.53;;;4.83;;
8225;SDS011;4154;48.810;9.012;2024-01-15T02:57:30;9.20;;;5.27;;
8225;SDS011;4154;48.810;9.012;2024-01-15T02:59:56;7.13;;;4.73;;
8225;SDS011;4154;48.810;9.012;2024-01-15T03:02:22;8.23;;;5.37;;
8225;SDS011;4154;48.810;9.012;2024-01-15T03:04:47;6.60;;;4.87;;
8225;SDS011;4154;48.810;9.012;2024-01-15T03:07:13;7.83;;;5.33;;
8225;SDS011;4154;48.810;9.012;2024-01-15T03:09:39;7.70;;;5.37;;
8225;SDS011;4154;48.810;9.012;2024-01-15T03:12:04;6.97;;;5.07;;
8225;SDS011;4154;48.810;9.012;2024-01-15T03:14:30;7.63;;;4.53;;
8225;SDS011;4154;48.810;9.012;2024-01-15T03:16:56;7.17;;;4.87;;
8225;SDS011;4154;48.810;9.012;2024-01-15T03:19:21;8.67;;;5.20;;
8225;SDS011;4154;48.810;9.012;2024-01-15T03:21:47;7.87;;;5.03;;
8225;SDS011;4154;48.810;9.012;2024-01-15T03:24:13;7.63;;;5.10;;
8225;SDS011;4154;48.810;9.012;2024-01-15T03:26:39;7.03;;;4.97;;
8225;SDS011;4154;48.810;9.012;2024-01-15T03:29:05;7.70;;;5.03;;
8225;SDS011;4154;48.810;9.012;2024-01-15T03:31:31;6.10;;;4.33;;
8225;SDS011;4154;48.810;9.012;2024-01-15T03:33:56;6.80;;;4.73;;
8225;SDS011;4154;48.810;9.012;2024-01-15T03:36:22;6.77;;;4.73;;
8225;SDS011;4154;48.810;9.012;2024-01-15T03:38:48;7.97;;;5.03;;
8225;SDS011;4154;48.810;9.012;2024-01-15T03:41:13;6.03;;;4.30;;
8225;SDS011;4154;48.810;9.012;2024-01-15T03:43:39;5.90;;;4.23;;
8225;SDS011;4154;48.810;9.012;2024-01-15T03:46:05;6.53;;;4.83;;
8225;SDS011;4154;48.810;9.012;2024-01-15T03:48:31;6.37;;;4.73;;
8225;SDS011;4154;48.810;9.012;2024-01-15T03:50:57;9.27;;;4.80;;
8225;SDS011;4154;48.810;9.012;2024-01-15T03:53:23;6.37;;;4.60;;
8225;SDS011;4154;48.810;9.012;2024-01-15T03:55:49;7.03;;;4.60;;
8225;SDS011;4154;48.810;9.012;2024-01-15T03:58:15;6.43;;;4.30;;
8225;SDS011;4154;48.810;9.012;2024-01-15T04:00:41;6.73;;;4.40;;
8225;SDS011;4154;48.810;9.012;2024-01-15T04:03:07;6.03;;;4.27;;
8225;SDS011;4154;48.810;9.012;2024-01-15T04:05:33;6.33;;;4.30;;
8225;SDS011;4154;48.810;9.012;2024-01-15T04:07:59;7.10;;;4.57;;
8225;SDS011;4154;48.810;9.012;2024-01-15T04:10:24;5.67;;;3.60;;
8225;SDS011;4154;48.810;9.012;2024-01-15T04:12:50;7.03;;;3.97;;
8225;SDS011;4154;48.810;9.012;2024-01-15T04:15:16;5.40;;;4.00;;
8225;SDS011;4154;48.810;9.012;2024-01-15T04:17:41;5.60;;;3.87;;
8225;SDS011;4154;48.810;9.012;2024-01-15T04:20:07;5.70;;;4.03;;
8225;SDS011;4154;48.810;9.012;2024-01-15T04:22:34;6.57;;;4.20;;
8225;SDS011;4154;48.810;9.012;2024-01-15T04:25:01;5.37;;;3.83;;
8225;SDS011;4154;48.810;9.012;2024-01-15T04:27:27;5.80;;;3.80;;
8225;SDS011;4154;48.810;9.012;2024-01-15T04:29:52;7.20;;;4.23;;
8225;SDS011;4154;48.810;9.012;2024-01-15T04:32:18;6.17;;;4.60;;
8225;SDS011;4154;48.810;9.012;2024-01-15T04:34:44;7.43;;;4.50;;
8225;SDS011;4154;48.810;9.012;2024-01-15T04:37:10;6.47;;;4.50;;
8225;SDS011;4154;48.810;9.012;2024-01-15T04:39:35;6.53;;;4.53;;
8225;SDS011;4154;48.810;9.012;2024-01-15T04:42:01;8.00;;;4.80;;
8225;SDS011;4154;48.810;9.012;2024-01-15T04:44:28;7.00;;;4.90;;
8225;SDS011;4154;48.810;9.012;2024-01-15T04:46:54;7.10;;;4.90;;
8225;SDS011;4154;48.810;9.012;2024-01-15T04:49:19;7.57;;;4.93;;
8225;SDS011;4154;48.810;9.012;2024-01-15T04:51:45;7.30;;;4.80;;
8225;SDS011;4154;48.810;9.012;2024-01-15T04:54:11;7.67;;;4.90;;
8225;SDS011;4154;48.810;9.012;2024-01-15T04:56:36;6.70;;;4.70;;
8225;SDS011;4154;48.810;9.012;2024-01-15T04:59:02;7.37;;;4.93;;
8225;SDS011;4154;48.810;9.012;2024-01-15T05:01:31;7.23;;;4.80;;
8225;SDS011;4154;48.810;9.012;2024-01-15T05:03:58;7.17;;;4.90;;
8225;SDS011;4154;48.810;9.012;2024-01-15T05:06:24;8.73;;;5.00;;
8225;SDS011;4154;48.810;9.012;2024-01-15T05:08:50;7.07;;;5.07;;
8225;SDS011;4154;48.810;9.012;2024-01-15T05:11:15;8.50;;;5.30;;
8225;SDS011;4154;48.810;9.012;2024-01-15T05:13:41;7.57;;;5.20;;
8225;SDS011;4154;48.810;9.012;2024-01-15T05:16:07;7.83;;;5.13;;
8225;SDS011;4154;48.810;9.012;2024-01-15T05:18:33;6.73;;;5.03;;
8225;SDS011;4154;48.810;9.012;2024-01-15T05:20:58;6.57;;;5.10;;
8225;SDS011;4154;48.810;9.012;2024-01-15T05:23:24;9.23;;;5.70;;
8225;SDS011;4154;48.810;9.012;2024-01-15T05:25:50;8.20;;;5.90;;
8225;SDS011;4154;48.810;9.012;2024-01-15T05:28:15;7.83;;;5.57;;
8225;SDS011;4154;48.810;9.012;2024-01-15T05:30:41;7.70;;;5.57;;
8225;SDS011;4154;48.810;9.012;2024-01-15T05:33:07;8.17;;;5.30;;
8225;SDS011;4154;48.810;9.012;2024-01-15T05:35:33;8.33;;;5.73;;
8225;SDS011;4154;48.810;9.012;2024-01-15T05:37:59;8.60;;;5.57;;
8225;SDS011;4154;48.810;9.012;2024-01-15T05:40:25;7.80;;;5.23;;
8225;SDS011;4154;48.810;9.012;2024-01-15T05:42:51;7.97;;;5.43;;
8225;SDS011;4154;48.810;9.012;2024-01-15T05:45:17;8.60;;;5.63;;
8225;SDS011;4154;48.810;9.012;2024-01-15T05:47:42;8.83;;;5.57;;
8225;SDS011;4154;48.810;9.012;2024-01-15T05:50:09;7.23;;;5.50;;
8225;SDS011;4154;48.810;9.012;2024-01-15T05:52:35;8.17;;;5.70;;
8225;SDS011;4154;48.810;9.012;2024-01-15T05:55:00;6.70;;;4.97;;
8225;SDS011;4154;48.810;9.012;2024-01-15T05:57:26;7.37;;;5.40;;
8225;SDS011;4154;48.810;9.012;2024-01-15T05:59:52;11.13;;;5.70;;
8225;SDS011;4154;48.810;9.012;2024-01-15T06:02:18;8.20;;;5.37;;
8225;SDS011;4154;48.810;9.012;2024-01-15T06:04:43;7.60;;;5.67;;
8225;SDS011;4154;48.810;9.012;2024-01-15T06:07:09;9.50;;;5.93;;
8225;SDS011;4154;48.810;9.012;2024-01-15T06:09:34;9.43;;;5.63;;
8225;SDS011;4154;48.810;9.012;2024-01-15T06:12:00;8.27;;;5.70;;
8225;SDS011;4154;48.810;9.012;2024-01-15T06:14:26;8.80;;;5.60;;
8225;SDS011;4154;48.810;9.012;2024-01-15T06:16:52;6.63;;;5.13;;
8225;SDS011;4154;48.810;9.012;2024-01-15T06:19:17;8.00;;;5.73;;
8225;SDS011;4154;48.810;9.012;2024-01-15T06:21:43;7.80;;;5.97;;
8225;SDS011;4154;48.810;9.012;2024-01-15T06:24:08;7.27;;;5.17;;
8225;SDS011;4154;48.810;9.012;2024-01-15T06:26:35;8.00;;;5.67;;
8225;SDS011;4154;48.810;9.012;2024-01-15T06:29:01;6.93;;;5.10;;
8225;SDS011;4154;48.810;9.012;2024-01-15T06:31:28;7.50;;;5.07;;
8225;SDS011;4154;48.810;9.012;2024-01-15T06:33:53;7.83;;;5.43;;
8225;SDS011;4154;48.810;9.012;2024-01-15T06:36:20;7.27;;;4.80;;
8225;SDS011;4154;48.810;9.012;2024-01-15T06:38:46;7.10;;;4.80;;
8225;SDS011;4154;48.810;9.012;2024-01-15T06:41:12;6.30;;;4.90;;
8225;SDS011;4154;48.810;9.012;2024-01-15T06:43:38;7.90;;;5.10;;
8225;SDS011;4154;48.810;9.012;2024-01-15T06:46:04;7.07;;;4.73;;
8225;SDS011;4154;48.810;9.012;2024-01-15T06:48:29;6.40;;;4.87;;
8225;SDS011;4154;48.810;9.012;2024-01-15T06:50:55;7.30;;;5.37;;
8225;SDS011;4154;48.810;9.012;2024-01-15T06:53:21;6.60;;;4.93;;
8225;SDS011;4154;48.810;9.012;2024-01-15T06:55:46;6.23;;;4.90;;
8225;SDS011;4154;48.810;9.012;2024-01-15T06:58:14;7.03;;;4.63;;
8225;SDS011;4154;48.810;9.012;2024-01-15T07:00:40;5.40;;;4.47;;
8225;SDS011;4154;48.810;9.012;2024-01-15T07:03:05;5.80;;;4.63;;
8225;SDS011;4154;48.810;9.012;2024-01-15T07:05:32;6.37;;;4.57;;
8225;SDS011;4154;48.810;9.012;2024-01-15T07:07:58;6.23;;;4.83;;
8225;SDS011;4154;48.810;9.012;2024-01-15T07:10:24;6.27;;;4.43;;
8225;SDS011;4154;48.810;9.012;2024-01-15T07:12:49;5.63;;;4.30;;
8225;SDS011;4154;48.810;9.012;2024-01-15T07:15:15;6.00;;;4.57;;
8225;SDS011;4154;48.810;9.012;2024-01-15T07:17:40;6.47;;;4.27;;
8225;SDS011;4154;48.810;9.012;2024-01-15T07:20:07;5.63;;;4.33;;
8225;SDS011;4154;48.810;9.012;2024-01-15T07:22:37;6.63;;;4.60;;
8225;SDS011;4154;48.810;9.012;2024-01-15T07:25:04;7.07;;;4.60;;
8225;SDS011;4154;48.810;9.012;2024-01-15T07:27:32;4.73;;;4.13;;
8225;SDS011;4154;48.810;9.012;2024-01-15T07:30:01;5.77;;;4.53;;
8225;SDS011;4154;48.810;9.012;2024-01-15T07:32:29;5.77;;;4.27;;
8225;SDS011;4154;48.810;9.012;2024-01-15T07:34:56;5.23;;;3.77;;
8225;SDS011;4154;48.810;9.012;2024-01-15T07:37:22;5.43;;;4.30;;
8225;SDS011;4154;48.810;9.012;2024-01-15T07:39:48;6.20;;;4.03;;
8225;SDS011;4154;48.810;9.012;2024-01-15T07:42:14;5.03;;;4.00;;
8225;SDS011;4154;48.810;9.012;2024-01-15T07:44:40;5.63;;;4.13;;
8225;SDS011;4154;48.810;9.012;2024-01-15T07:47:05;6.80;;;4.27;;
8225;SDS011;4154;48.810;9.012;2024-01-15T07:49:31;5.30;;;4.10;;
8225;SDS011;4154;48.810;9.012;2024-01-15T07:51:57;5.17;;;4.27;;
8225;SDS011;4154;48.810;9.012;2024-01-15T07:54:22;8.30;;;4.10;;
8225;SDS011;4154;48.810;9.012;2024-01-15T07:56:58;4.90;;;4.20;;
8225;SDS011;4154;48.810;9.012;2024-01-15T07:59:26;5.03;;;3.90;;
8225;SDS011;4154;48.810;9.012;2024-01-15T08:01:52;5.70;;;4.13;;
8225;SDS011;4154;48.810;9.012;2024-01-15T08:04:19;4.83;;;4.00;;
8225;SDS011;4154;48.810;9.012;2024-01-15T08:06:45;5.40;;;3.60;;
8225;SDS011;4154;48.810;9.012;2024-01-15T08:09:11;5.13;;;3.97;;
8225;SDS011;4154;48.810;9.012;2024-01-15T08:11:41;5.10;;;3.90;;
8225;SDS011;4154;48.810;9.012;2024-01-15T08:14:08;5.17;;;3.97;;
8225;SDS011;4154;48.810;9.012;2024-01-15T08:16:35;5.23;;;3.93;;
8225;SDS011;4154;48.810;9.012;2024-01-15T08:19:04;5.13;;;3.77;;
8225;SDS011;4154;48.810;9.012;2024-01-15T08:21:30;5.83;;;3.90;;
8225;SDS011;4154;48.810;9.012;2024-01-15T08:23:57;5.40;;;3.50;;
8225;SDS011;4154;48.810;9.012;2024-01-15T08:26:24;4.23;;;3.27;;
8225;SDS011;4154;48.810;9.012;2024-01-15T08:28:50;4.57;;;3.50;;
8225;SDS011;4154;48.810;9.012;2024-01-15T08:31:16;4.63;;;3.60;;
8225;SDS011;4154;48.810;9.012;2024-01-15T08:33:42;5.77;;;3.90;;
8225;SDS011;4154;48.810;9.012;2024-01-15T08:36:09;5.33;;;4.07;;
8225;SDS011;4154;48.810;9.012;2024-01-15T08:38:35;5.00;;;3.70;;
8225;SDS011;4154;48.810;9.012;2024-01-15T08:41:00;5.50;;;3.67;;
8225;SDS011;4154;48.810;9.012;2024-01-15T08:43:26;4.93;;;3.40;;
8225;SDS011;4154;48.810;9.012;2024-01-15T08:45:55;4.33;;;3.40;;
8225;SDS011;4154;48.810;9.012;2024-01-15T08:48:24;4.37;;;3.30;;
8225;SDS011;4154;48.810;9.012;2024-01-15T08:50:52;4.50;;;3.70;;
8225;SDS011;4154;48.810;9.012;2024-01-15T08:53:19;5.77;;;4.17;;
8225;SDS011;4154;48.810;9.012;2024-01-15T08:55:45;5.60;;;3.97;;
8225;SDS011;4154;48.810;9.012;2024-01-15T08:58:11;4.97;;;3.33;;
8225;SDS011;4154;48.810;9.012;2024-01-15T09:00:36;3.57;;;3.00;;
8225;SDS011;4154;48.810;9.012;2024-01-15T09:03:02;3.37;;;3.00;;
8225;SDS011;4154;48.810;9.012;2024-01-15T09:05:28;3.70;;;3.23;;
8225;SDS011;4154;48.810;9.012;2024-01-15T09:07:54;4.47;;;3.10;;
8225;SDS011;4154;48.810;9.012;2024-01-15T09:10:20;5.00;;;2.77;;
8225;SDS011;4154;48.810;9.012;2024-01-15T09:12:46;4.00;;;3.00;;
8225;SDS011;4154;48.810;9.012;2024-01-15T09:15:12;3.93;;;2.93;;
8225;SDS011;4154;48.810;9.012;2024-01-15T09:17:38;5.67;;;3.00;;
8225;SDS011;4154;48.810;9.012;2024-01-15T09:20:03;4.10;;;3.10;;
8225;SDS011;4154;48.810;9.012;2024-01-15T09:22:30;3.33;;;2.83;;
8225;SDS011;4154;48.810;9.012;2024-01-15T09:24:56;3.60;;;2.80;;
8225;SDS011;4154;48.810;9.012;2024-01-15T09:27:23;4.33;;;3.13;;
8225;SDS011;4154;48.810;9.012;2024-01-15T09:29:53;5.83;;;2.63;;
8225;SDS011;4154;48.810;9.012;2024-01-15T09:32:19;3.30;;;3.00;;
8225;SDS011;4154;48.810;9.012;2024-01-15T09:34:48;3.37;;;2.50;;
8225;SDS011;4154;48.810;9.012;2024-01-15T09:37:14;4.07;;;3.10;;
8225;SDS011;4154;48.810;9.012;2024-01-15T09:39:40;3.40;;;2.70;;
8225;SDS011;4154;48.810;9.012;2024-01-15T09:42:06;4.70;;;2.70;;
8225;SDS011;4154;48.810;9.012;2024-01-15T09:44:33;3.87;;;2.80;;
8225;SDS011;4154;48.810;9.012;2024-01-15T09:46:59;3.13;;;2.80;;
8225;SDS011;4154;48.810;9.012;2024-01-15T09:49:26;4.23;;;3.07;;
8225;SDS011;4154;48.810;9.012;2024-01-15T09:51:52;3.37;;;2.70;;
8225;SDS011;4154;48.810;9.012;2024-01-15T09:54:19;3.37;;;2.70;;
8225;SDS011;4154;48.810;9.012;2024-01-15T09:56:46;2.97;;;2.53;;
8225;SDS011;4154;48.810;9.012;2024-01-15T09:59:16;3.80;;;2.87;;
8225;SDS011;4154;48.810;9.012;2024-01-15T10:01:46;3.77;;;2.90;;
8225;SDS011;4154;48.810;9.012;2024-01-15T10:04:15;3.60;;;2.70;;
8225;SDS011;4154;48.810;9.012;2024-01-15T10:06:44;3.20;;;2.90;;
8225;SDS011;4154;48.810;9.012;2024-01-15T10:09:14;4.07;;;2.70;;
8225;SDS011;4154;48.810;9.012;2024-01-15T10:11:41;3.80;;;3.10;;
8225;SDS011;4154;48.810;9.012;2024-01-15T10:14:08;4.33;;;3.07;;
8225;SDS011;4154;48.810;9.012;2024-01-15T10:16:37;3.73;;;2.67;;
8225;SDS011;4154;48.810;9.012;2024-01-15T10:19:04;3.10;;;2.80;;
8225;SDS011;4154;48.810;9.012;2024-01-15T10:21:31;4.77;;;2.80;;
8225;SDS011;4154;48.810;9.012;2024-01-15T10:24:00;3.80;;;2.73;;
8225;SDS011;4154;48.810;9.012;2024-01-15T10:26:27;3.33;;;2.57;;
8225;SDS011;4154;48.810;9.012;2024-01-15T10:28:54;4.60;;;4.10;;
8225;SDS011;4154;48.810;9.012;2024-01-15T10:31:19;3.53;;;3.20;;
8225;SDS011;4154;48.810;9.012;2024-01-15T10:33:47;3.13;;;2.70;;
8225;SDS011;4154;48.810;9.012;2024-01-15T10:36:16;3.83;;;3.00;;
8225;SDS011;4154;48.810;9.012;2024-01-15T10:38:43;3.33;;;2.77;;
8225;SDS011;4154;48.810;9.012;2024-01-15T10:41:09;4.23;;;2.93;;
8225;SDS011;4154;48.810;9.012;2024-01-15T10:43:36;3.10;;;2.80;;
8225;SDS011;4154;48.810;9.012;2024-01-15T10:46:01;3.47;;;2.73;;
8225;SDS011;4154;48.810;9.012;2024-01-15T10:48:28;3.57;;;2.70;;
8225;SDS011;4154;48.810;9.012;2024-01-15T10:50:55;3.70;;;2.93;;
8225;SDS011;4154;48.810;9.012;2024-01-15T10:53:25;3.13;;;2.77;;
8225;SDS011;4154;48.810;9.012;2024-01-15T10:55:52;3.77;;;2.90;;
8225;SDS011;4154;48.810;9.012;2024-01-15T10:58:18;5.13;;;3.07;;
8225;SDS011;4154;48.810;9.012;2024-01-15T11:00:47;4.07;;;2.73;;
8225;SDS011;4154;48.810;9.012;2024-01-15T11:03:13;3.13;;;2.83;;
8225;SDS011;4154;48.810;9.012;2024-01-15T11:05:41;5.27;;;3.20;;
8225;SDS011;4154;48.810;9.012;2024-01-15T11:08:08;3.90;;;3.20;;
8225;SDS011;4154;48.810;9.012;2024-01-15T11:10:41;3.83;;;3.17;;
8225;SDS011;4154;48.810;9.012;2024-01-15T11:13:20;3.83;;;2.90;;
8225;SDS011;4154;48.810;9.012;2024-01-15T11:16:05;3.80;;;3.17;;
8225;SDS011;4154;48.810;9.012;2024-01-15T11:18:37;4.27;;;3.00;;
8225;SDS011;4154;48.810;9.012;2024-01-15T11:23:57;3.53;;;3.00;;
8225;SDS011;4154;48.810;9.012;2024-01-15T11:26:32;3.67;;;2.97;;
8225;SDS011;4154;48.810;9.012;2024-01-15T11:37:56;6.10;;;3.33;;
8225;SDS011;4154;48.810;9.012;2024-01-15T11:40:20;3.53;;;3.10;;
8225;SDS011;4154;48.810;9.012;2024-01-15T11:42:59;5.80;;;3.70;;
8225;SDS011;4154;48.810;9.012;2024-01-15T11:45:25;4.47;;;3.40;;
8225;SDS011;4154;48.810;9.012;2024-01-15T11:47:59;4.97;;;3.53;;
8225;SDS011;4154;48.810;9.012;2024-01-15T11:50:40;5.37;;;3.67;;
8225;SDS011;4154;48.810;9.012;2024-01-15T11:53:27;5.80;;;4.03;;
8225;SDS011;4154;48.810;9.012;2024-01-15T11:56:14;4.70;;;3.63;;
8225;SDS011;4154;48.810;9.012;2024-01-15T11:58:43;4.90;;;4.10;;
8225;SDS011;4154;48.810;9.012;2024-01-15T12:01:12;4.20;;;3.57;;
8225;SDS011;4154;48.810;9.012;2024-01-15T12:03:38;5.13;;;3.30;;
8225;SDS011;4154;48.810;9.012;2024-01-15T12:06:07;3.97;;;3.40;;
8225;SDS011;4154;48.810;9.012;2024-01-15T12:08:35;6.33;;;3.70;;
8225;SDS011;4154;48.810;9.012;2024-01-15T12:11:01;5.50;;;4.00;;
8225;SDS011;4154;48.810;9.012;2024-01-15T12:13:38;4.27;;;3.70;;
8225;SDS011;4154;48.810;9.012;2024-01-15T12:16:04;5.30;;;3.53;;
8225;SDS011;4154;48.810;9.012;2024-01-15T12:18:30;4.70;;;3.43;;
8225;SDS011;4154;48.810;9.012;2024-01-15T12:20:56;4.10;;;3.43;;
8225;SDS011;4154;48.810;9.012;2024-01-15T12:23:23;4.60;;;3.37;;
8225;SDS011;4154;48.810;9.012;2024-01-15T12:25:49;5.17;;;3.40;;
8225;SDS011;4154;48.810;9.012;2024-01-15T12:28:15;3.67;;;3.03;;
8225;SDS011;4154;48.810;9.012;2024-01-15T12:30:41;4.57;;;3.13;;
8225;SDS011;4154;48.810;9.012;2024-01-15T12:33:07;3.03;;;2.73;;
8225;SDS011;4154;48.810;9.012;2024-01-15T12:35:33;4.33;;;2.93;;
8225;SDS011;4154;48.810;9.012;2024-01-15T12:38:00;3.73;;;2.97;;
8225;SDS011;4154;48.810;9.012;2024-01-15T12:40:30;3.70;;;3.00;;
8225;SDS011;4154;48.810;9.012;2024-01-15T12:42:59;3.70;;;3.00;;
8225;SDS011;4154;48.810;9.012;2024-01-15T12:45:25;4.17;;;3.10;;
8225;SDS011;4154;48.810;9.012;2024-01-15T12:47:51;3.50;;;3.07;;
8225;SDS011;4154;48.810;9.012;2024-01-15T12:50:17;3.93;;;3.30;;
8225;SDS011;4154;48.810;9.012;2024-01-15T12:52:43;3.80;;;2.80;;
8225;SDS011;4154;48.810;9.012;2024-01-15T12:55:09;4.20;;;2.90;;
8225;SDS011;4154;48.810;9.012;2024-01-15T12:57:35;4.80;;;3.30;;
8225;SDS011;4154;48.810;9.012;2024-01-15T13:00:02;4.10;;;3.30;;
8225;SDS011;4154;48.810;9.012;2024-01-15T13:02:36;4.33;;;3.37;;
8225;SDS011;4154;48.810;9.012;2024-01-15T13:05:04;4.57;;;2.93;;
8225;SDS011;4154;48.810;9.012;2024-01-15T13:07:32;3.93;;;3.00;;
8225;SDS011;4154;48.810;9.012;2024-01-15T13:09:57;4.13;;;3.20;;
8225;SDS011;4154;48.810;9.012;2024-01-15T13:12:23;4.10;;;3.20;;
8225;SDS011;4154;48.810;9.012;2024-01-15T13:14:49;3.33;;;3.00;;
8225;SDS011;4154;48.810;9.012;2024-01-15T13:17:15;3.70;;;2.80;;
8225;SDS011;4154;48.810;9.012;2024-01-15T13:19:40;3.63;;;2.90;;
8225;SDS011;4154;48.810;9.012;2024-01-15T13:22:06;3.93;;;2.60;;
8225;SDS011;4154;48.810;9.012;2024-01-15T13:24:32;3.30;;;2.70;;
8225;SDS011;4154;48.810;9.012;2024-01-15T13:26:57;4.60;;;3.20;;
8225;SDS011;4154;48.810;9.012;2024-01-15T13:29:23;3.97;;;2.93;;
8225;SDS011;4154;48.810;9.012;2024-01-15T13:31:49;3.83;;;2.90;;
8225;SDS011;4154;48.810;9.012;2024-01-15T13:34:14;2.90;;;2.60;;
8225;SDS011;4154;48.810;9.012;2024-01-15T13:36:40;3.70;;;3.03;;
8225;SDS011;4154;48.810;9.012;2024-01-15T13:39:06;3.90;;;2.73;;
8225;SDS011;4154;48.810;9.012;2024-01-15T13:41:34;4.27;;;2.90;;
8225;SDS011;4154;48.810;9.012;2024-01-15T13:44:00;3.60;;;2.53;;
8225;SDS011;4154;48.810;9.012;2024-01-15T13:46:26;2.53;;;2.20;;
8225;SDS011;4154;48.810;9.012;2024-01-15T13:48:52;3.00;;;2.67;;
8225;SDS011;4154;48.810;9.012;2024-01-15T13:51:18;2.67;;;2.30;;
8225;SDS011;4154;48.810;9.012;2024-01-15T13:53:47;2.33;;;2.03;;
8225;SDS011;4154;48.810;9.012;2024-01-15T13:56:12;2.53;;;2.33;;
8225;SDS011;4154;48.810;9.012;2024-01-15T13:58:38;2.10;;;1.90;;
8225;SDS011;4154;48.810;9.012;2024-01-15T14:01:04;2.33;;;2.13;;
8225;SDS011;4154;48.810;9.012;2024-01-15T14:03:30;2.70;;;2.40;;
8225;SDS011;4154;48.810;9.012;2024-01-15T14:05:57;3.90;;;2.20;;
8225;SDS011;4154;48.810;9.012;2024-01-15T14:08:23;2.90;;;2.60;;
8225;SDS011;4154;48.810;9.012;2024-01-15T14:10:49;2.63;;;2.40;;
8225;SDS011;4154;48.810;9.012;2024-01-15T14:13:14;2.63;;;2.43;;
8225;SDS011;4154;48.810;9.012;2024-01-15T14:15:40;3.20;;;2.90;;
8225;SDS011;4154;48.810;9.012;2024-01-15T14:18:06;3.23;;;2.90;;
8225;SDS011;4154;48.810;9.012;2024-01-15T14:20:32;3.80;;;3.07;;
8225;SDS011;4154;48.810;9.012;2024-01-15T14:22:58;3.30;;;3.00;;
8225;SDS011;4154;48.810;9.012;2024-01-15T14:25:24;3.20;;;2.80;;
8225;SDS011;4154;48.810;9.012;2024-01-15T14:27:49;4.40;;;3.00;;
8225;SDS011;4154;48.810;9.012;2024-01-15T14:30:15;5.43;;;3.13;;
8225;SDS011;4154;48.810;9.012;2024-01-15T14:32:41;4.07;;;3.67;;
8225;SDS011;4154;48.810;9.012;2024-01-15T14:35:08;4.33;;;3.93;;
8225;SDS011;4154;48.810;9.012;2024-01-15T14:37:38;4.70;;;4.20;;
8225;SDS011;4154;48.810;9.012;2024-01-15T14:40:05;4.80;;;4.20;;
8225;SDS011;4154;48.810;9.012;2024-01-15T14:42:35;4.70;;;4.20;;
8225;SDS011;4154;48.810;9.012;2024-01-15T14:45:02;5.00;;;4.53;;
8225;SDS011;4154;48.810;9.012;2024-01-15T14:47:28;4.43;;;4.03;;
8225;SDS011;4154;48.810;9.012;2024-01-15T14:49:56;4.23;;;3.83;;
8225;SDS011;4154;48.810;9.012;2024-01-15T14:52:22;5.40;;;4.57;;
8225;SDS011;4154;48.810;9.012;2024-01-15T14:54:48;5.50;;;4.60;;
8225;SDS011;4154;48.810;9.012;2024-01-15T14:57:14;4.50;;;4.10;;
8225;SDS011;4154;48.810;9.012;2024-01-15T14:59:40;5.10;;;4.53;;
8225;SDS011;4154;48.810;9.012;2024-01-15T15:02:06;4.97;;;4.47;;
8225;SDS011;4154;48.810;9.012;2024-01-15T15:04:32;4.90;;;4.20;;
8225;SDS011;4154;48.810;9.012;2024-01-15T15:06:57;4.30;;;3.77;;
8225;SDS011;4154;48.810;9.012;2024-01-15T15:09:23;4.73;;;4.23;;
8225;SDS011;4154;48.810;9.012;2024-01-15T15:11:49;4.50;;;4.10;;
8225;SDS011;4154;48.810;9.012;2024-01-15T15:14:17;4.53;;;4.13;;
8225;SDS011;4154;48.810;9.012;2024-01-15T15:16:43;5.63;;;4.33;;
8225;SDS011;4154;48.810;9.012;2024-01-15T15:19:08;5.20;;;4.13;;
8225;SDS011;4154;48.810;9.012;2024-01-15T15:21:34;5.30;;;4.10;;
8225;SDS011;4154;48.810;9.012;2024-01-15T15:24:00;5.07;;;4.17;;